Station History

Weather Underground - logo

Station Historical Data
Daily Summary for December 6, 2017 Units:  English    Metric   Both
« Previous Day
Next Day »
Daily Weekly Monthly Yearly Custom
  High: Low: Average:
Temperature: 62.2 °F 30.4 °F 44.3 °F
Dew Point: 39.4 °F 28.5 °F 34.3 °F
Humidity: 95 % 35 % 72 %
Wind Speed: 5.0 mph 0.0 mph 0.5 mph
Wind Gust: 5.0 mph - -
Wind:- - WNW
Pressure: 30.36 in 30.27 in -
Precipitation: 0.00 in    
Historical Graphs
 
 
Tabular Data for December 6, 2017
Time Temperature Dew Point Pressure Wind Wind Speed Wind Gust Humidity Rainfall Rate (Hourly)
00:03 33.9 °F 31.6 °F 30.30 in Calm     91 % 0.00 in
00:08 34.0 °F 31.6 °F 30.31 in Calm     91 % 0.00 in
00:13 34.1 °F 32.0 °F 30.31 in Calm     92 % 0.00 in
00:18 34.0 °F 31.6 °F 30.31 in Calm     91 % 0.00 in
00:23 33.7 °F 31.4 °F 30.30 in Calm     91 % 0.00 in
00:28 33.6 °F 31.3 °F 30.30 in Calm     91 % 0.00 in
00:33 33.6 °F 31.5 °F 30.30 in Calm     92 % 0.00 in
00:38 33.7 °F 31.6 °F 30.30 in Calm     92 % 0.00 in
00:44 33.8 °F 31.7 °F 30.30 in Calm     92 % 0.00 in
00:48 33.7 °F 31.6 °F 30.30 in Calm     92 % 0.00 in
00:54 33.6 °F 31.5 °F 30.30 in Calm     92 % 0.00 in
00:59 33.5 °F 31.4 °F 30.30 in Calm     92 % 0.00 in
01:04 33.2 °F 30.9 °F 30.30 in Calm     91 % 0.00 in
01:09 33.5 °F 31.4 °F 30.31 in SW 1.2 mph 1.2 mph 92 % 0.00 in
01:14 33.2 °F 30.9 °F 30.31 in SW 1.2 mph 1.2 mph 91 % 0.00 in
01:19 33.4 °F 31.3 °F 30.30 in Calm     92 % 0.00 in
01:24 33.6 °F 31.5 °F 30.30 in SW 1.2 mph   92 % 0.00 in
01:29 33.6 °F 31.5 °F 30.30 in Calm     92 % 0.00 in
01:34 33.6 °F 31.5 °F 30.30 in Calm     92 % 0.00 in
01:39 33.8 °F 31.7 °F 30.30 in Calm     92 % 0.00 in
01:44 34.0 °F 31.9 °F 30.30 in Calm     92 % 0.00 in
01:49 33.3 °F 30.7 °F 30.31 in Calm     90 % 0.00 in
01:54 32.6 °F 29.7 °F 30.31 in Calm     89 % 0.00 in
02:04 32.0 °F 29.4 °F 30.30 in Calm     90 % 0.00 in
02:09 31.8 °F 29.5 °F 30.31 in Calm     91 % 0.00 in
02:14 31.7 °F 29.4 °F 30.31 in Calm     91 % 0.00 in
02:19 31.8 °F 29.7 °F 30.31 in Calm     92 % 0.00 in
02:24 31.9 °F 29.8 °F 30.31 in Calm     92 % 0.00 in
02:29 31.9 °F 29.8 °F 30.31 in Calm     92 % 0.00 in
02:34 32.1 °F 30.3 °F 30.31 in Calm     93 % 0.00 in
02:39 32.3 °F 30.5 °F 30.31 in Calm     93 % 0.00 in
02:44 32.4 °F 30.6 °F 30.31 in Calm     93 % 0.00 in
02:49 32.6 °F 30.8 °F 30.31 in Calm     93 % 0.00 in
02:54 32.8 °F 31.0 °F 30.31 in Calm     93 % 0.00 in
02:59 32.7 °F 30.6 °F 30.31 in Calm     92 % 0.00 in
03:04 32.5 °F 30.4 °F 30.31 in Calm     92 % 0.00 in
03:09 32.4 °F 30.3 °F 30.31 in Calm     92 % 0.00 in
03:14 32.1 °F 30.0 °F 30.31 in Calm     92 % 0.00 in
03:19 31.9 °F 29.8 °F 30.31 in Calm     92 % 0.00 in
03:24 31.9 °F 29.8 °F 30.31 in Calm     92 % 0.00 in
03:29 31.9 °F 30.1 °F 30.31 in Calm     93 % 0.00 in
03:34 31.8 °F 30.0 °F 30.31 in Calm     93 % 0.00 in
03:39 31.8 °F 30.0 °F 30.31 in Calm     93 % 0.00 in
03:44 31.8 °F 30.0 °F 30.31 in Calm     93 % 0.00 in
03:49 32.0 °F 30.2 °F 30.31 in Calm     93 % 0.00 in
03:54 32.0 °F 30.2 °F 30.31 in Calm     93 % 0.00 in
03:59 32.2 °F 30.4 °F 30.31 in Calm     93 % 0.00 in
04:04 32.5 °F 31.0 °F 30.31 in Calm     94 % 0.00 in
04:09 32.5 °F 31.0 °F 30.31 in Calm     94 % 0.00 in
04:14 32.4 °F 30.6 °F 30.31 in Calm     93 % 0.00 in
04:19 32.4 °F 30.6 °F 30.31 in Calm     93 % 0.00 in
04:24 32.4 °F 30.6 °F 30.31 in Calm     93 % 0.00 in
04:29 32.4 °F 30.6 °F 30.31 in Calm     93 % 0.00 in
04:34 32.3 °F 30.5 °F 30.30 in Calm     93 % 0.00 in
04:40 32.1 °F 30.3 °F 30.30 in Calm     93 % 0.00 in
04:45 32.0 °F 30.2 °F 30.30 in Calm     93 % 0.00 in
04:50 32.0 °F 30.2 °F 30.30 in Calm     93 % 0.00 in
05:00 32.1 °F 30.6 °F 30.30 in Calm     94 % 0.00 in
05:05 32.2 °F 30.7 °F 30.30 in Calm     94 % 0.00 in
05:10 32.0 °F 30.2 °F 30.30 in Calm     93 % 0.00 in
05:15 31.9 °F 30.1 °F 30.30 in Calm     93 % 0.00 in
05:20 31.7 °F 29.9 °F 30.30 in Calm     93 % 0.00 in
05:25 31.8 °F 30.0 °F 30.30 in Calm     93 % 0.00 in
05:30 31.5 °F 29.7 °F 30.30 in Calm     93 % 0.00 in
05:35 31.0 °F 28.9 °F 30.30 in Calm     92 % 0.00 in
05:40 30.6 °F 28.6 °F 30.30 in Calm     92 % 0.00 in
05:45 30.5 °F 28.5 °F 30.31 in Calm     92 % 0.00 in
05:50 30.6 °F 28.6 °F 30.31 in Calm     92 % 0.00 in
05:55 30.6 °F 28.8 °F 30.31 in Calm     93 % 0.00 in
06:00 30.7 °F 28.9 °F 30.31 in Calm     93 % 0.00 in
06:05 30.7 °F 28.9 °F 30.31 in Calm     93 % 0.00 in
06:10 30.8 °F 29.0 °F 30.31 in Calm     93 % 0.00 in
06:15 30.8 °F 29.0 °F 30.31 in Calm     93 % 0.00 in
06:20 31.0 °F 29.5 °F 30.32 in Calm     94 % 0.00 in
06:25 31.3 °F 29.8 °F 30.32 in Calm     94 % 0.00 in
06:30 31.3 °F 29.8 °F 30.32 in Calm     94 % 0.00 in
06:35 31.0 °F 29.2 °F 30.32 in Calm     93 % 0.00 in
06:40 30.8 °F 29.0 °F 30.33 in Calm     93 % 0.00 in
06:45 30.6 °F 28.8 °F 30.33 in Calm     93 % 0.00 in
06:50 30.4 °F 28.6 °F 30.33 in Calm     93 % 0.00 in
06:55 30.4 °F 28.6 °F 30.33 in Calm     93 % 0.00 in
07:00 30.4 °F 28.9 °F 30.33 in Calm     94 % 0.00 in
07:05 30.4 °F 28.9 °F 30.33 in Calm     94 % 0.00 in
07:10 30.5 °F 29.0 °F 30.33 in Calm     94 % 0.00 in
07:15 30.7 °F 29.2 °F 30.33 in Calm     94 % 0.00 in
07:20 30.8 °F 29.3 °F 30.33 in Calm     94 % 0.00 in
07:21 30.9 °F 29.4 °F 30.33 in Calm     94 % 0.00 in
07:26 31.4 °F 30.1 °F 30.34 in Calm     95 % 0.00 in
07:31 31.7 °F 30.4 °F 30.34 in Calm     95 % 0.00 in
07:36 31.9 °F 30.6 °F 30.34 in Calm     95 % 0.00 in
07:41 32.4 °F 31.1 °F 30.34 in Calm     95 % 0.00 in
07:46 32.8 °F 31.5 °F 30.34 in Calm     95 % 0.00 in
07:51 33.7 °F 32.4 °F 30.34 in Calm     95 % 0.00 in
07:56 35.5 °F 34.2 °F 30.34 in Calm     95 % 0.00 in
08:01 36.9 °F 35.6 °F 30.34 in Calm     95 % 0.00 in
08:06 38.2 °F 36.9 °F 30.34 in Calm     95 % 0.00 in
08:11 39.3 °F 36.6 °F 30.34 in Calm     90 % 0.00 in
08:16 40.0 °F 36.7 °F 30.35 in Calm     88 % 0.00 in
08:21 40.8 °F 36.6 °F 30.35 in North 1.2 mph   85 % 0.00 in
08:26 41.2 °F 36.7 °F 30.35 in Calm     84 % 0.00 in
08:31 42.0 °F 37.2 °F 30.35 in Calm     83 % 0.00 in
08:36 42.9 °F 37.5 °F 30.35 in Calm     81 % 0.00 in
08:41 44.3 °F 37.9 °F 30.35 in Calm     78 % 0.00 in
08:46 45.0 °F 37.2 °F 30.35 in WNW 1.2 mph 1.2 mph 74 % 0.00 in
08:51 45.1 °F 37.3 °F 30.35 in NW 1.2 mph   74 % 0.00 in
08:56 45.3 °F 37.5 °F 30.35 in WNW 1.2 mph 1.2 mph 74 % 0.00 in
09:01 45.5 °F 37.3 °F 30.35 in Calm     73 % 0.00 in
09:06 45.9 °F 37.0 °F 30.35 in Calm     71 % 0.00 in
09:11 46.5 °F 37.6 °F 30.35 in NW 1.2 mph 1.2 mph 71 % 0.00 in
09:16 46.9 °F 36.9 °F 30.36 in NNW 1.2 mph 1.2 mph 68 % 0.00 in
09:21 47.4 °F 37.4 °F 30.35 in Calm     68 % 0.00 in
09:26 47.8 °F 37.7 °F 30.35 in Calm     68 % 0.00 in
09:31 48.3 °F 37.5 °F 30.35 in Calm     66 % 0.00 in
09:36 49.1 °F 37.8 °F 30.35 in Calm     65 % 0.00 in
09:41 49.8 °F 37.3 °F 30.35 in Calm     62 % 0.00 in
09:46 50.4 °F 37.9 °F 30.35 in Calm     62 % 0.00 in
09:51 50.7 °F 37.3 °F 30.35 in WNW 1.2 mph   60 % 0.00 in
09:56 51.0 °F 37.2 °F 30.35 in WNW 1.2 mph 1.2 mph 59 % 0.00 in
10:01 51.3 °F 37.4 °F 30.35 in NNW 1.2 mph 1.2 mph 59 % 0.00 in
10:06 51.7 °F 37.4 °F 30.35 in WNW 1.2 mph 1.2 mph 58 % 0.00 in
10:12 52.0 °F 36.8 °F 30.35 in WNW 1.2 mph   56 % 0.00 in
10:17 52.3 °F 36.6 °F 30.35 in Calm     55 % 0.00 in
10:22 52.5 °F 36.8 °F 30.35 in NW 3.5 mph 3.5 mph 55 % 0.00 in
10:27 52.9 °F 37.2 °F 30.35 in NW 1.2 mph 1.2 mph 55 % 0.00 in
10:32 53.4 °F 37.2 °F 30.35 in WNW 1.2 mph 1.2 mph 54 % 0.00 in
10:37 53.7 °F 37.0 °F 30.35 in WNW 1.2 mph   53 % 0.00 in
10:42 54.0 °F 37.7 °F 30.35 in WNW 1.2 mph 1.2 mph 54 % 0.00 in
10:47 54.4 °F 37.6 °F 30.35 in NW 2.3 mph 2.3 mph 53 % 0.00 in
10:52 54.8 °F 38.9 °F 30.34 in NW 2.3 mph 2.3 mph 55 % 0.00 in
10:57 55.0 °F 38.6 °F 30.34 in NW 1.2 mph 1.2 mph 54 % 0.00 in
11:02 55.3 °F 38.9 °F 30.34 in NW 2.3 mph 2.3 mph 54 % 0.00 in
11:07 55.5 °F 38.6 °F 30.34 in NNW 2.0 mph 2.0 mph 53 % 0.00 in
11:12 55.8 °F 39.4 °F 30.34 in NW 2.3 mph 2.3 mph 54 % 0.00 in
11:17 56.1 °F 38.2 °F 30.33 in WNW 1.2 mph 1.2 mph 51 % 0.00 in
11:22 56.3 °F 38.4 °F 30.33 in NW 3.5 mph 3.5 mph 51 % 0.00 in
11:27 56.7 °F 37.7 °F 30.33 in Calm     49 % 0.00 in
11:32 56.9 °F 37.9 °F 30.33 in NW 2.3 mph 2.3 mph 49 % 0.00 in
11:37 57.1 °F 38.1 °F 30.33 in NW 2.3 mph 2.3 mph 49 % 0.00 in
11:42 57.2 °F 37.1 °F 30.33 in WNW 1.2 mph   47 % 0.00 in
11:47 57.8 °F 37.7 °F 30.32 in NW 2.3 mph 2.3 mph 47 % 0.00 in
11:52 58.0 °F 37.3 °F 30.32 in NNW 2.0 mph 2.0 mph 46 % 0.00 in
11:57 58.4 °F 37.1 °F 30.32 in NW 2.0 mph 2.0 mph 45 % 0.00 in
11:58 58.4 °F 37.7 °F 30.32 in North 2.3 mph 2.3 mph 46 % 0.00 in
12:03 58.8 °F 38.1 °F 30.31 in NW 1.2 mph 1.2 mph 46 % 0.00 in
12:08 59.0 °F 37.7 °F 30.31 in NW 1.0 mph   45 % 0.00 in
12:13 59.2 °F 37.3 °F 30.31 in NW 2.3 mph 2.3 mph 44 % 0.00 in
12:18 59.5 °F 38.1 °F 30.31 in WNW 1.0 mph   45 % 0.00 in
12:23 59.7 °F 35.9 °F 30.30 in NW 2.3 mph 2.3 mph 41 % 0.00 in
12:28 60.0 °F 36.2 °F 30.30 in Calm     41 % 0.00 in
12:33 60.0 °F 36.8 °F 30.30 in Calm     42 % 0.00 in
12:38 60.4 °F 35.9 °F 30.30 in NNW 5.0 mph 5.0 mph 40 % 0.00 in
12:43 60.5 °F 36.7 °F 30.30 in NNW 3.5 mph 3.5 mph 41 % 0.00 in
12:48 60.6 °F 35.5 °F 30.30 in WNW 1.2 mph   39 % 0.00 in
12:53 60.7 °F 36.2 °F 30.30 in NW 2.3 mph 2.3 mph 40 % 0.00 in
12:58 60.9 °F 35.8 °F 30.29 in WNW 3.5 mph 3.5 mph 39 % 0.00 in
13:08 61.0 °F 35.2 °F 30.29 in NW 3.5 mph 3.5 mph 38 % 0.00 in
13:13 61.0 °F 35.2 °F 30.29 in WNW 1.0 mph 1.0 mph 38 % 0.00 in
13:18 61.3 °F 35.5 °F 30.29 in NW 2.3 mph 2.3 mph 38 % 0.00 in
13:23 61.6 °F 35.7 °F 30.29 in NNW 2.3 mph 2.3 mph 38 % 0.00 in
13:28 62.0 °F 35.4 °F 30.28 in NW 3.5 mph 3.5 mph 37 % 0.00 in
13:33 62.1 °F 35.5 °F 30.28 in NNW 2.3 mph 2.3 mph 37 % 0.00 in
13:38 62.0 °F 35.4 °F 30.28 in NW 3.5 mph 3.5 mph 37 % 0.00 in
13:43 62.0 °F 34.0 °F 30.28 in WNW 4.0 mph 4.0 mph 35 % 0.00 in
13:48 61.9 °F 33.9 °F 30.28 in West 3.5 mph 3.5 mph 35 % 0.00 in
13:53 61.9 °F 33.9 °F 30.28 in NW 3.5 mph 3.5 mph 35 % 0.00 in
13:58 61.8 °F 35.2 °F 30.27 in NNW 1.0 mph   37 % 0.00 in
14:03 62.0 °F 34.7 °F 30.27 in NW 2.3 mph 2.3 mph 36 % 0.00 in
14:08 61.9 °F 33.9 °F 30.27 in NW 3.5 mph 3.5 mph 35 % 0.00 in
14:13 62.0 °F 34.7 °F 30.27 in WNW 2.3 mph 2.3 mph 36 % 0.00 in
14:19 62.0 °F 34.7 °F 30.27 in Calm   0.1 mph 36 % 0.00 in
14:20 62.0 °F 35.4 °F 30.27 in WNW 1.2 mph   37 % 0.00 in
14:25 62.1 °F 34.8 °F 30.27 in NW 2.3 mph 2.3 mph 36 % 0.00 in
14:30 62.2 °F 34.2 °F 30.27 in NW 1.2 mph 1.2 mph 35 % 0.00 in
14:35 62.1 °F 34.1 °F 30.27 in SW 2.0 mph 2.0 mph 35 % 0.00 in
14:40 62.0 °F 34.0 °F 30.27 in Calm     35 % 0.00 in
14:45 62.0 °F 34.0 °F 30.27 in NW 2.3 mph 2.3 mph 35 % 0.00 in
14:50 61.9 °F 34.6 °F 30.27 in NNW 2.3 mph 2.3 mph 36 % 0.00 in
14:55 62.0 °F 36.1 °F 30.27 in NW 1.2 mph 1.2 mph 38 % 0.00 in
15:00 62.0 °F 34.7 °F 30.27 in NW 2.3 mph 2.3 mph 36 % 0.00 in
15:05 61.9 °F 35.3 °F 30.27 in Calm     37 % 0.00 in
15:10 61.8 °F 35.2 °F 30.27 in NW 1.2 mph 1.2 mph 37 % 0.00 in
15:11 61.8 °F 35.2 °F 30.27 in NW 1.2 mph 1.2 mph 37 % 0.00 in
15:16 61.7 °F 33.7 °F 30.27 in NW 1.2 mph 1.2 mph 35 % 0.00 in
15:21 61.6 °F 34.4 °F 30.28 in Calm     36 % 0.00 in
15:26 61.4 °F 34.9 °F 30.28 in Calm     37 % 0.00 in
15:31 61.3 °F 36.1 °F 30.28 in WNW 1.2 mph   39 % 0.00 in
15:36 61.0 °F 35.8 °F 30.28 in WNW 1.2 mph 1.2 mph 39 % 0.00 in
15:41 60.8 °F 35.7 °F 30.27 in Calm     39 % 0.00 in
15:46 60.5 °F 37.3 °F 30.28 in Calm     42 % 0.00 in
15:51 60.3 °F 37.1 °F 30.27 in Calm     42 % 0.00 in
15:52 60.3 °F 37.1 °F 30.27 in Calm     42 % 0.00 in
15:57 59.9 °F 36.7 °F 30.27 in Calm     42 % 0.00 in
16:02 59.6 °F 36.5 °F 30.27 in Calm     42 % 0.00 in
16:07 59.3 °F 37.4 °F 30.27 in Calm     44 % 0.00 in
16:12 58.9 °F 37.0 °F 30.28 in Calm     44 % 0.00 in
16:17 58.5 °F 37.2 °F 30.27 in Calm     45 % 0.00 in
16:22 58.0 °F 38.9 °F 30.28 in Calm     49 % 0.00 in
16:27 57.1 °F 38.6 °F 30.28 in Calm     50 % 0.00 in
16:32 56.4 °F 39.0 °F 30.28 in Calm     52 % 0.00 in
16:37 55.8 °F 37.9 °F 30.28 in Calm     51 % 0.00 in
16:42 55.2 °F 37.9 °F 30.28 in Calm     52 % 0.00 in
16:47 54.7 °F 37.9 °F 30.29 in Calm     53 % 0.00 in
16:52 54.2 °F 37.9 °F 30.28 in Calm     54 % 0.00 in
16:57 53.5 °F 37.7 °F 30.28 in Calm     55 % 0.00 in
17:02 52.9 °F 39.0 °F 30.28 in Calm     59 % 0.00 in
17:07 52.2 °F 38.3 °F 30.28 in Calm     59 % 0.00 in
17:12 51.4 °F 38.0 °F 30.28 in Calm     60 % 0.00 in
17:17 50.8 °F 37.8 °F 30.29 in Calm     61 % 0.00 in
17:22 50.4 °F 37.9 °F 30.29 in Calm     62 % 0.00 in
17:27 49.9 °F 37.0 °F 30.29 in Calm     61 % 0.00 in
17:32 49.5 °F 38.6 °F 30.30 in Calm     66 % 0.00 in
17:37 49.3 °F 39.2 °F 30.30 in Calm     68 % 0.00 in
17:42 48.8 °F 38.3 °F 30.30 in Calm     67 % 0.00 in
17:47 48.6 °F 38.5 °F 30.30 in Calm     68 % 0.00 in
17:52 48.3 °F 37.8 °F 30.30 in Calm     67 % 0.00 in
17:57 47.9 °F 38.6 °F 30.30 in Calm     70 % 0.00 in
18:02 47.3 °F 38.4 °F 30.30 in Calm     71 % 0.00 in
18:07 46.9 °F 38.7 °F 30.31 in Calm     73 % 0.00 in
18:12 46.3 °F 38.5 °F 30.31 in Calm     74 % 0.00 in
18:17 45.7 °F 37.9 °F 30.31 in Calm     74 % 0.00 in
18:22 45.7 °F 37.5 °F 30.31 in Calm     73 % 0.00 in
18:28 46.0 °F 37.5 °F 30.31 in Calm     72 % 0.00 in
18:33 46.1 °F 37.6 °F 30.31 in Calm     72 % 0.00 in
18:38 46.0 °F 37.5 °F 30.31 in Calm     72 % 0.00 in
18:43 46.1 °F 37.2 °F 30.31 in Calm     71 % 0.00 in
18:48 46.4 °F 37.1 °F 30.31 in Calm     70 % 0.00 in
18:53 46.1 °F 37.2 °F 30.31 in Calm     71 % 0.00 in
18:58 45.6 °F 37.1 °F 30.31 in Calm     72 % 0.00 in
19:03 45.1 °F 37.0 °F 30.32 in Calm     73 % 0.00 in
19:08 44.9 °F 37.1 °F 30.32 in Calm     74 % 0.00 in
19:13 44.9 °F 37.1 °F 30.32 in Calm     74 % 0.00 in
19:18 44.6 °F 37.2 °F 30.32 in Calm     75 % 0.00 in
19:22 44.3 °F 37.2 °F 30.32 in Calm     76 % 0.00 in
19:23 44.2 °F 37.1 °F 30.32 in Calm     76 % 0.00 in
19:28 43.8 °F 37.1 °F 30.33 in Calm     77 % 0.00 in
19:33 43.6 °F 36.9 °F 30.33 in Calm     77 % 0.00 in
19:38 43.3 °F 36.9 °F 30.33 in Calm     78 % 0.00 in
19:43 43.2 °F 36.8 °F 30.33 in Calm     78 % 0.00 in
19:48 43.1 °F 36.7 °F 30.33 in Calm     78 % 0.00 in
19:53 43.0 °F 36.3 °F 30.33 in Calm     77 % 0.00 in
19:58 43.2 °F 36.8 °F 30.33 in Calm     78 % 0.00 in
20:03 43.3 °F 36.6 °F 30.33 in Calm     77 % 0.00 in
20:08 43.2 °F 36.8 °F 30.33 in Calm     78 % 0.00 in
20:13 43.2 °F 36.5 °F 30.33 in Calm     77 % 0.00 in
20:18 43.3 °F 36.6 °F 30.33 in Calm     77 % 0.00 in
20:23 43.1 °F 36.4 °F 30.34 in Calm     77 % 0.00 in
20:28 43.0 °F 36.6 °F 30.33 in Calm     78 % 0.00 in
20:33 42.9 °F 36.2 °F 30.34 in Calm     77 % 0.00 in
20:38 42.8 °F 36.4 °F 30.34 in Calm     78 % 0.00 in
20:43 42.7 °F 36.3 °F 30.34 in Calm     78 % 0.00 in
20:48 42.5 °F 36.1 °F 30.34 in Calm     78 % 0.00 in
20:53 42.2 °F 35.8 °F 30.34 in Calm     78 % 0.00 in
20:58 41.7 °F 35.7 °F 30.34 in Calm     79 % 0.00 in
21:03 41.1 °F 35.4 °F 30.33 in Calm     80 % 0.00 in
21:08 40.6 °F 35.2 °F 30.33 in Calm     81 % 0.00 in
21:13 40.0 °F 35.3 °F 30.33 in Calm     83 % 0.00 in
21:18 40.1 °F 35.0 °F 30.33 in Calm     82 % 0.00 in
21:23 40.4 °F 35.0 °F 30.33 in WSW 1.0 mph 1.0 mph 81 % 0.00 in
21:28 40.7 °F 35.0 °F 30.33 in Calm     80 % 0.00 in
21:33 40.8 °F 35.1 °F 30.34 in Calm     80 % 0.00 in
21:38 40.9 °F 34.9 °F 30.34 in Calm     79 % 0.00 in
21:43 41.0 °F 35.0 °F 30.33 in Calm     79 % 0.00 in
21:48 41.1 °F 34.8 °F 30.33 in Calm     78 % 0.00 in
21:53 40.9 °F 34.6 °F 30.34 in Calm     78 % 0.00 in
21:58 40.7 °F 34.7 °F 30.34 in Calm     79 % 0.00 in
22:03 40.6 °F 34.6 °F 30.34 in Calm     79 % 0.00 in
22:08 40.3 °F 34.3 °F 30.33 in Calm     79 % 0.00 in
22:13 40.1 °F 34.1 °F 30.34 in Calm     79 % 0.00 in
22:18 39.7 °F 34.3 °F 30.34 in Calm     81 % 0.00 in
22:23 39.3 °F 34.0 °F 30.34 in Calm     81 % 0.00 in
22:28 39.0 °F 34.3 °F 30.34 in Calm     83 % 0.00 in
22:33 38.6 °F 34.2 °F 30.34 in Calm     84 % 0.00 in
22:38 38.0 °F 33.6 °F 30.34 in Calm     84 % 0.00 in
22:43 37.4 °F 33.0 °F 30.34 in Calm     84 % 0.00 in
22:48 36.9 °F 32.8 °F 30.34 in Calm     85 % 0.00 in
22:53 36.5 °F 32.4 °F 30.34 in Calm     85 % 0.00 in
22:58 36.3 °F 32.5 °F 30.34 in Calm     86 % 0.00 in
23:03 36.0 °F 32.5 °F 30.34 in Calm     87 % 0.00 in
23:08 35.9 °F 32.7 °F 30.35 in Calm     88 % 0.00 in
23:13 36.1 °F 32.9 °F 30.35 in Calm     88 % 0.00 in
23:18 36.3 °F 33.1 °F 30.34 in Calm     88 % 0.00 in
23:23 36.4 °F 33.2 °F 30.34 in Calm     88 % 0.00 in
23:28 36.3 °F 33.1 °F 30.34 in Calm     88 % 0.00 in
23:34 36.5 °F 33.6 °F 30.34 in Calm     89 % 0.00 in
23:39 36.8 °F 33.6 °F 30.35 in Calm     88 % 0.00 in
23:44 37.0 °F 33.5 °F 30.35 in Calm     87 % 0.00 in
23:46 37.1 °F 33.6 °F 30.35 in Calm     87 % 0.00 in
23:51 36.7 °F 32.9 °F 30.35 in Calm     86 % 0.00 in
23:56 36.4 °F 32.9 °F 30.35 in Calm     87 % 0.00 in
Park Place, Exeter, Tulare County, California, USA
Compliments of Weather Underground - 2.75 mb